sensor_id;sensor_type;location;lat;lon;timestamp;P1;durP1;ratioP1;P2;durP2;ratioP2
65552;SDS011;52465;51.560;14.368;2023-03-23T00:00:47;4.93;;;4.63;;
65552;SDS011;52465;51.560;14.368;2023-03-23T00:03:13;4.53;;;4.22;;
65552;SDS011;52465;51.560;14.368;2023-03-23T00:05:38;4.95;;;4.65;;
65552;SDS011;52465;51.560;14.368;2023-03-23T00:08:06;5.20;;;4.90;;
65552;SDS011;52465;51.560;14.368;2023-03-23T00:10:36;5.05;;;4.75;;
65552;SDS011;52465;51.560;14.368;2023-03-23T00:13:04;4.90;;;4.60;;
65552;SDS011;52465;51.560;14.368;2023-03-23T00:15:29;4.82;;;4.53;;
65552;SDS011;52465;51.560;14.368;2023-03-23T00:17:58;4.60;;;4.30;;
65552;SDS011;52465;51.560;14.368;2023-03-23T00:20:30;4.88;;;4.57;;
65552;SDS011;52465;51.560;14.368;2023-03-23T00:23:02;4.78;;;4.57;;
65552;SDS011;52465;51.560;14.368;2023-03-23T00:25:29;4.90;;;4.60;;
65552;SDS011;52465;51.560;14.368;2023-03-23T00:27:54;4.75;;;4.45;;
65552;SDS011;52465;51.560;14.368;2023-03-23T00:30:20;4.90;;;4.60;;
65552;SDS011;52465;51.560;14.368;2023-03-23T00:32:45;5.05;;;4.75;;
65552;SDS011;52465;51.560;14.368;2023-03-23T00:35:10;5.10;;;4.80;;
65552;SDS011;52465;51.560;14.368;2023-03-23T00:37:36;5.00;;;4.70;;
65552;SDS011;52465;51.560;14.368;2023-03-23T00:40:02;4.70;;;4.50;;
65552;SDS011;52465;51.560;14.368;2023-03-23T00:42:31;5.00;;;4.70;;
65552;SDS011;52465;51.560;14.368;2023-03-23T00:45:01;4.60;;;4.40;;
65552;SDS011;52465;51.560;14.368;2023-03-23T00:47:27;4.85;;;4.55;;
65552;SDS011;52465;51.560;14.368;2023-03-23T00:49:52;4.80;;;4.50;;
65552;SDS011;52465;51.560;14.368;2023-03-23T00:52:20;4.97;;;4.70;;
65552;SDS011;52465;51.560;14.368;2023-03-23T00:54:46;4.80;;;4.50;;
65552;SDS011;52465;51.560;14.368;2023-03-23T00:57:12;4.80;;;4.50;;
65552;SDS011;52465;51.560;14.368;2023-03-23T00:59:37;4.88;;;4.60;;
65552;SDS011;52465;51.560;14.368;2023-03-23T01:02:03;4.90;;;4.60;;
65552;SDS011;52465;51.560;14.368;2023-03-23T01:04:28;4.93;;;4.60;;
65552;SDS011;52465;51.560;14.368;2023-03-23T01:06:56;4.88;;;4.57;;
65552;SDS011;52465;51.560;14.368;2023-03-23T01:09:22;5.05;;;4.75;;
65552;SDS011;52465;51.560;14.368;2023-03-23T01:11:48;4.90;;;4.70;;
65552;SDS011;52465;51.560;14.368;2023-03-23T01:14:15;4.68;;;4.38;;
65552;SDS011;52465;51.560;14.368;2023-03-23T01:16:42;5.13;;;4.82;;
65552;SDS011;52465;51.560;14.368;2023-03-23T01:19:11;4.95;;;4.65;;
65552;SDS011;52465;51.560;14.368;2023-03-23T01:21:37;4.63;;;4.32;;
65552;SDS011;52465;51.560;14.368;2023-03-23T01:24:03;5.00;;;4.70;;
65552;SDS011;52465;51.560;14.368;2023-03-23T01:26:28;4.90;;;4.60;;
65552;SDS011;52465;51.560;14.368;2023-03-23T01:28:55;4.88;;;4.57;;
65552;SDS011;52465;51.560;14.368;2023-03-23T01:31:22;5.05;;;4.75;;
65552;SDS011;52465;51.560;14.368;2023-03-23T01:33:51;5.20;;;4.90;;
65552;SDS011;52465;51.560;14.368;2023-03-23T01:36:18;5.07;;;4.78;;
65552;SDS011;52465;51.560;14.368;2023-03-23T01:38:46;4.65;;;4.40;;
65552;SDS011;52465;51.560;14.368;2023-03-23T01:41:14;4.97;;;4.68;;
65552;SDS011;52465;51.560;14.368;2023-03-23T01:43:53;4.93;;;4.63;;
65552;SDS011;52465;51.560;14.368;2023-03-23T01:46:33;5.13;;;4.82;;
65552;SDS011;52465;51.560;14.368;2023-03-23T01:49:08;4.88;;;4.57;;
65552;SDS011;52465;51.560;14.368;2023-03-23T01:51:40;4.90;;;4.60;;
65552;SDS011;52465;51.560;14.368;2023-03-23T01:54:11;4.85;;;4.55;;
65552;SDS011;52465;51.560;14.368;2023-03-23T01:56:47;5.25;;;4.90;;
65552;SDS011;52465;51.560;14.368;2023-03-23T01:59:29;5.00;;;4.70;;
65552;SDS011;52465;51.560;14.368;2023-03-23T02:01:57;5.25;;;4.95;;
65552;SDS011;52465;51.560;14.368;2023-03-23T02:04:23;5.03;;;4.72;;
65552;SDS011;52465;51.560;14.368;2023-03-23T02:06:50;4.95;;;4.53;;
65552;SDS011;52465;51.560;14.368;2023-03-23T02:09:18;5.25;;;4.95;;
65552;SDS011;52465;51.560;14.368;2023-03-23T02:11:44;4.93;;;4.70;;
65552;SDS011;52465;51.560;14.368;2023-03-23T02:14:15;4.28;;;4.07;;
65552;SDS011;52465;51.560;14.368;2023-03-23T02:16:54;4.70;;;4.50;;
65552;SDS011;52465;51.560;14.368;2023-03-23T02:22:06;4.70;;;4.50;;
65552;SDS011;52465;51.560;14.368;2023-03-23T02:24:54;4.78;;;4.57;;
65552;SDS011;52465;51.560;14.368;2023-03-23T02:27:31;4.90;;;4.65;;
65552;SDS011;52465;51.560;14.368;2023-03-23T02:30:22;5.38;;;5.00;;
65552;SDS011;52465;51.560;14.368;2023-03-23T02:33:39;5.00;;;4.70;;
65552;SDS011;52465;51.560;14.368;2023-03-23T02:38:39;4.97;;;4.68;;
65552;SDS011;52465;51.560;14.368;2023-03-23T02:41:10;4.90;;;4.70;;
65552;SDS011;52465;51.560;14.368;2023-03-23T02:43:40;5.30;;;5.00;;
65552;SDS011;52465;51.560;14.368;2023-03-23T02:46:08;5.03;;;4.72;;
65552;SDS011;52465;51.560;14.368;2023-03-23T02:48:35;4.85;;;4.55;;
65552;SDS011;52465;51.560;14.368;2023-03-23T02:51:05;5.00;;;4.70;;
65552;SDS011;52465;51.560;14.368;2023-03-23T02:53:33;4.80;;;4.50;;
65552;SDS011;52465;51.560;14.368;2023-03-23T02:56:03;4.70;;;4.40;;
65552;SDS011;52465;51.560;14.368;2023-03-23T02:58:32;5.05;;;4.75;;
65552;SDS011;52465;51.560;14.368;2023-03-23T03:00:58;4.80;;;4.60;;
65552;SDS011;52465;51.560;14.368;2023-03-23T03:03:26;4.70;;;4.40;;
65552;SDS011;52465;51.560;14.368;2023-03-23T03:08:37;4.72;;;4.53;;
65552;SDS011;52465;51.560;14.368;2023-03-23T03:11:11;4.93;;;4.55;;
65552;SDS011;52465;51.560;14.368;2023-03-23T03:13:42;4.93;;;4.72;;
65552;SDS011;52465;51.560;14.368;2023-03-23T03:21:45;4.72;;;4.47;;
65552;SDS011;52465;51.560;14.368;2023-03-23T03:24:15;5.03;;;4.72;;
65552;SDS011;52465;51.560;14.368;2023-03-23T03:26:44;4.80;;;4.60;;
65552;SDS011;52465;51.560;14.368;2023-03-23T03:29:13;4.93;;;4.68;;
65552;SDS011;52465;51.560;14.368;2023-03-23T03:31:42;4.97;;;4.77;;
65552;SDS011;52465;51.560;14.368;2023-03-23T03:34:13;4.55;;;4.35;;
65552;SDS011;52465;51.560;14.368;2023-03-23T03:36:45;4.90;;;4.60;;
65552;SDS011;52465;51.560;14.368;2023-03-23T03:39:15;4.70;;;4.50;;
65552;SDS011;52465;51.560;14.368;2023-03-23T03:41:42;4.65;;;4.45;;
65552;SDS011;52465;51.560;14.368;2023-03-23T03:44:09;4.80;;;4.60;;
65552;SDS011;52465;51.560;14.368;2023-03-23T03:46:35;4.55;;;4.35;;
65552;SDS011;52465;51.560;14.368;2023-03-23T03:49:01;4.55;;;4.25;;
65552;SDS011;52465;51.560;14.368;2023-03-23T03:53:58;4.90;;;4.70;;
65552;SDS011;52465;51.560;14.368;2023-03-23T03:56:23;4.93;;;4.70;;
65552;SDS011;52465;51.560;14.368;2023-03-23T03:58:49;4.88;;;4.57;;
65552;SDS011;52465;51.560;14.368;2023-03-23T04:01:16;4.78;;;4.50;;
65552;SDS011;52465;51.560;14.368;2023-03-23T04:03:43;5.38;;;5.07;;
65552;SDS011;52465;51.560;14.368;2023-03-23T04:06:09;4.93;;;4.70;;
65552;SDS011;52465;51.560;14.368;2023-03-23T04:08:39;4.93;;;4.70;;
65552;SDS011;52465;51.560;14.368;2023-03-23T04:11:07;4.63;;;4.32;;
65552;SDS011;52465;51.560;14.368;2023-03-23T04:13:33;4.80;;;4.60;;
65552;SDS011;52465;51.560;14.368;2023-03-23T04:16:00;4.75;;;4.55;;
65552;SDS011;52465;51.560;14.368;2023-03-23T04:18:25;5.03;;;4.72;;
65552;SDS011;52465;51.560;14.368;2023-03-23T04:20:51;4.95;;;4.65;;
65552;SDS011;52465;51.560;14.368;2023-03-23T04:23:18;5.30;;;4.90;;
65552;SDS011;52465;51.560;14.368;2023-03-23T04:25:47;5.03;;;4.73;;
65552;SDS011;52465;51.560;14.368;2023-03-23T04:28:17;4.72;;;4.43;;
65552;SDS011;52465;51.560;14.368;2023-03-23T04:30:44;5.32;;;5.03;;
65552;SDS011;52465;51.560;14.368;2023-03-23T04:33:13;5.00;;;4.63;;
65552;SDS011;52465;51.560;14.368;2023-03-23T04:35:40;4.80;;;4.60;;
65552;SDS011;52465;51.560;14.368;2023-03-23T04:38:07;4.75;;;4.45;;
65552;SDS011;52465;51.560;14.368;2023-03-23T04:40:35;4.68;;;4.47;;
65552;SDS011;52465;51.560;14.368;2023-03-23T04:43:02;4.90;;;4.60;;
65552;SDS011;52465;51.560;14.368;2023-03-23T04:45:30;5.15;;;4.85;;
65552;SDS011;52465;51.560;14.368;2023-03-23T04:47:57;5.13;;;4.80;;
65552;SDS011;52465;51.560;14.368;2023-03-23T04:50:24;4.90;;;4.70;;
65552;SDS011;52465;51.560;14.368;2023-03-23T04:52:52;5.05;;;4.78;;
65552;SDS011;52465;51.560;14.368;2023-03-23T04:55:19;5.18;;;4.88;;
65552;SDS011;52465;51.560;14.368;2023-03-23T04:57:47;4.80;;;4.60;;
65552;SDS011;52465;51.560;14.368;2023-03-23T05:00:12;5.00;;;4.70;;
65552;SDS011;52465;51.560;14.368;2023-03-23T05:02:41;4.88;;;4.57;;
65552;SDS011;52465;51.560;14.368;2023-03-23T05:05:12;5.45;;;4.95;;
65552;SDS011;52465;51.560;14.368;2023-03-23T05:07:40;5.68;;;5.05;;
65552;SDS011;52465;51.560;14.368;2023-03-23T05:10:07;5.03;;;4.72;;
65552;SDS011;52465;51.560;14.368;2023-03-23T05:12:37;4.90;;;4.55;;
65552;SDS011;52465;51.560;14.368;2023-03-23T05:15:04;5.25;;;4.95;;
65552;SDS011;52465;51.560;14.368;2023-03-23T05:17:33;4.95;;;4.65;;
65552;SDS011;52465;51.560;14.368;2023-03-23T05:19:59;5.00;;;4.70;;
65552;SDS011;52465;51.560;14.368;2023-03-23T05:22:28;5.38;;;5.07;;
65552;SDS011;52465;51.560;14.368;2023-03-23T05:24:57;4.93;;;4.63;;
65552;SDS011;52465;51.560;14.368;2023-03-23T05:27:23;4.80;;;4.60;;
65552;SDS011;52465;51.560;14.368;2023-03-23T05:29:48;4.95;;;4.75;;
65552;SDS011;52465;51.560;14.368;2023-03-23T05:32:15;4.68;;;4.38;;
65552;SDS011;52465;51.560;14.368;2023-03-23T05:34:42;4.35;;;4.15;;
65552;SDS011;52465;51.560;14.368;2023-03-23T05:37:08;4.65;;;4.35;;
65552;SDS011;52465;51.560;14.368;2023-03-23T05:39:35;4.70;;;4.40;;
65552;SDS011;52465;51.560;14.368;2023-03-23T05:42:01;4.80;;;4.60;;
65552;SDS011;52465;51.560;14.368;2023-03-23T05:44:27;4.68;;;4.47;;
65552;SDS011;52465;51.560;14.368;2023-03-23T05:46:54;4.50;;;4.20;;
65552;SDS011;52465;51.560;14.368;2023-03-23T05:49:19;4.70;;;4.40;;
65552;SDS011;52465;51.560;14.368;2023-03-23T05:51:45;4.95;;;4.65;;
65552;SDS011;52465;51.560;14.368;2023-03-23T05:56:55;4.80;;;4.50;;
65552;SDS011;52465;51.560;14.368;2023-03-23T05:59:21;4.40;;;4.20;;
65552;SDS011;52465;51.560;14.368;2023-03-23T06:01:46;4.78;;;4.47;;
65552;SDS011;52465;51.560;14.368;2023-03-23T06:04:12;4.57;;;4.38;;
65552;SDS011;52465;51.560;14.368;2023-03-23T06:06:38;4.50;;;4.20;;
65552;SDS011;52465;51.560;14.368;2023-03-23T06:09:06;4.50;;;4.30;;
65552;SDS011;52465;51.560;14.368;2023-03-23T06:11:32;4.70;;;4.40;;
65552;SDS011;52465;51.560;14.368;2023-03-23T06:13:58;4.60;;;4.30;;
65552;SDS011;52465;51.560;14.368;2023-03-23T06:16:24;4.25;;;4.05;;
65552;SDS011;52465;51.560;14.368;2023-03-23T06:18:50;4.28;;;3.97;;
65552;SDS011;52465;51.560;14.368;2023-03-23T06:21:16;4.38;;;4.10;;
65552;SDS011;52465;51.560;14.368;2023-03-23T06:23:43;4.20;;;4.00;;
65552;SDS011;52465;51.560;14.368;2023-03-23T06:26:10;4.32;;;4.13;;
65552;SDS011;52465;51.560;14.368;2023-03-23T06:28:39;4.50;;;4.30;;
65552;SDS011;52465;51.560;14.368;2023-03-23T06:31:05;4.30;;;4.10;;
65552;SDS011;52465;51.560;14.368;2023-03-23T06:33:32;4.20;;;4.00;;
65552;SDS011;52465;51.560;14.368;2023-03-23T06:36:01;4.90;;;4.60;;
65552;SDS011;52465;51.560;14.368;2023-03-23T06:38:27;4.50;;;4.30;;
65552;SDS011;52465;51.560;14.368;2023-03-23T06:40:53;4.18;;;3.97;;
65552;SDS011;52465;51.560;14.368;2023-03-23T06:43:19;4.47;;;4.07;;
65552;SDS011;52465;51.560;14.368;2023-03-23T06:45:45;4.28;;;4.07;;
65552;SDS011;52465;51.560;14.368;2023-03-23T06:48:10;4.43;;;4.13;;
65552;SDS011;52465;51.560;14.368;2023-03-23T06:50:37;4.15;;;3.95;;
65552;SDS011;52465;51.560;14.368;2023-03-23T06:53:02;4.28;;;4.07;;
65552;SDS011;52465;51.560;14.368;2023-03-23T06:55:28;4.78;;;4.50;;
65552;SDS011;52465;51.560;14.368;2023-03-23T06:57:53;4.35;;;4.15;;
65552;SDS011;52465;51.560;14.368;2023-03-23T07:00:18;4.20;;;4.00;;
65552;SDS011;52465;51.560;14.368;2023-03-23T07:02:44;4.40;;;4.13;;
65552;SDS011;52465;51.560;14.368;2023-03-23T07:05:11;4.28;;;4.07;;
65552;SDS011;52465;51.560;14.368;2023-03-23T07:07:37;4.22;;;3.90;;
65552;SDS011;52465;51.560;14.368;2023-03-23T07:10:05;4.25;;;3.95;;
65552;SDS011;52465;51.560;14.368;2023-03-23T07:12:33;4.32;;;4.03;;
65552;SDS011;52465;51.560;14.368;2023-03-23T07:14:58;4.22;;;4.03;;
65552;SDS011;52465;51.560;14.368;2023-03-23T07:17:24;4.50;;;4.28;;
65552;SDS011;52465;51.560;14.368;2023-03-23T07:19:50;4.15;;;3.90;;
65552;SDS011;52465;51.560;14.368;2023-03-23T07:22:15;4.03;;;3.83;;
65552;SDS011;52465;51.560;14.368;2023-03-23T07:24:41;4.50;;;4.30;;
65552;SDS011;52465;51.560;14.368;2023-03-23T07:27:06;4.35;;;4.15;;
65552;SDS011;52465;51.560;14.368;2023-03-23T07:29:32;4.53;;;4.22;;
65552;SDS011;52465;51.560;14.368;2023-03-23T07:32:00;4.45;;;4.15;;
65552;SDS011;52465;51.560;14.368;2023-03-23T07:34:26;4.38;;;4.10;;
65552;SDS011;52465;51.560;14.368;2023-03-23T07:36:52;4.18;;;3.97;;
65552;SDS011;52465;51.560;14.368;2023-03-23T07:39:17;4.20;;;4.00;;
65552;SDS011;52465;51.560;14.368;2023-03-23T07:41:43;4.10;;;3.90;;
65552;SDS011;52465;51.560;14.368;2023-03-23T07:44:09;4.25;;;4.05;;
65552;SDS011;52465;51.560;14.368;2023-03-23T07:46:35;4.20;;;4.00;;
65552;SDS011;52465;51.560;14.368;2023-03-23T07:49:01;4.53;;;4.32;;
65552;SDS011;52465;51.560;14.368;2023-03-23T07:51:29;4.30;;;4.10;;
65552;SDS011;52465;51.560;14.368;2023-03-23T07:53:55;4.90;;;4.60;;
65552;SDS011;52465;51.560;14.368;2023-03-23T07:56:21;4.40;;;4.20;;
65552;SDS011;52465;51.560;14.368;2023-03-23T07:58:47;4.30;;;4.00;;
65552;SDS011;52465;51.560;14.368;2023-03-23T08:01:13;4.40;;;4.20;;
65552;SDS011;52465;51.560;14.368;2023-03-23T08:03:39;4.70;;;4.30;;
65552;SDS011;52465;51.560;14.368;2023-03-23T08:06:05;4.30;;;4.10;;
65552;SDS011;52465;51.560;14.368;2023-03-23T08:08:33;4.32;;;4.13;;
65552;SDS011;52465;51.560;14.368;2023-03-23T08:10:58;4.45;;;4.25;;
65552;SDS011;52465;51.560;14.368;2023-03-23T08:13:24;4.70;;;4.30;;
65552;SDS011;52465;51.560;14.368;2023-03-23T08:15:50;4.30;;;4.10;;
65552;SDS011;52465;51.560;14.368;2023-03-23T08:18:16;4.32;;;4.13;;
65552;SDS011;52465;51.560;14.368;2023-03-23T08:20:42;4.40;;;4.20;;
65552;SDS011;52465;51.560;14.368;2023-03-23T08:23:09;4.40;;;4.20;;
65552;SDS011;52465;51.560;14.368;2023-03-23T08:25:35;4.45;;;4.15;;
65552;SDS011;52465;51.560;14.368;2023-03-23T08:28:01;4.50;;;4.30;;
65552;SDS011;52465;51.560;14.368;2023-03-23T08:30:27;4.47;;;4.25;;
65552;SDS011;52465;51.560;14.368;2023-03-23T08:32:55;4.07;;;3.88;;
65552;SDS011;52465;51.560;14.368;2023-03-23T08:35:21;4.63;;;4.28;;
65552;SDS011;52465;51.560;14.368;2023-03-23T08:37:47;4.78;;;4.38;;
65552;SDS011;52465;51.560;14.368;2023-03-23T08:40:16;4.15;;;3.95;;
65552;SDS011;52465;51.560;14.368;2023-03-23T08:42:44;4.40;;;4.20;;
65552;SDS011;52465;51.560;14.368;2023-03-23T08:45:12;4.63;;;4.32;;
65552;SDS011;52465;51.560;14.368;2023-03-23T08:47:40;4.43;;;4.22;;
65552;SDS011;52465;51.560;14.368;2023-03-23T08:50:07;4.30;;;4.10;;
65552;SDS011;52465;51.560;14.368;2023-03-23T08:52:33;4.50;;;4.30;;
65552;SDS011;52465;51.560;14.368;2023-03-23T08:54:59;4.82;;;4.53;;
65552;SDS011;52465;51.560;14.368;2023-03-23T08:57:25;4.60;;;4.40;;
65552;SDS011;52465;51.560;14.368;2023-03-23T08:59:51;4.70;;;4.40;;
65552;SDS011;52465;51.560;14.368;2023-03-23T09:02:19;4.40;;;4.20;;
65552;SDS011;52465;51.560;14.368;2023-03-23T09:04:45;4.30;;;4.10;;
65552;SDS011;52465;51.560;14.368;2023-03-23T09:07:11;4.53;;;4.32;;
65552;SDS011;52465;51.560;14.368;2023-03-23T09:09:39;4.40;;;4.20;;
65552;SDS011;52465;51.560;14.368;2023-03-23T09:12:08;4.32;;;4.07;;
65552;SDS011;52465;51.560;14.368;2023-03-23T09:14:34;4.63;;;4.32;;
65552;SDS011;52465;51.560;14.368;2023-03-23T09:17:04;4.45;;;4.25;;
65552;SDS011;52465;51.560;14.368;2023-03-23T09:19:31;4.47;;;4.18;;
65552;SDS011;52465;51.560;14.368;2023-03-23T09:21:58;4.72;;;4.43;;
65552;SDS011;52465;51.560;14.368;2023-03-23T09:24:23;4.45;;;4.25;;
65552;SDS011;52465;51.560;14.368;2023-03-23T09:26:49;4.40;;;4.20;;
65552;SDS011;52465;51.560;14.368;2023-03-23T09:29:15;4.40;;;4.20;;
65552;SDS011;52465;51.560;14.368;2023-03-23T09:31:41;4.60;;;4.40;;
65552;SDS011;52465;51.560;14.368;2023-03-23T09:34:08;4.30;;;4.10;;
65552;SDS011;52465;51.560;14.368;2023-03-23T09:36:35;4.28;;;4.07;;
65552;SDS011;52465;51.560;14.368;2023-03-23T09:39:01;4.35;;;4.15;;
65552;SDS011;52465;51.560;14.368;2023-03-23T09:41:50;4.50;;;4.30;;
65552;SDS011;52465;51.560;14.368;2023-03-23T09:44:28;4.38;;;4.18;;
65552;SDS011;52465;51.560;14.368;2023-03-23T09:49:46;4.53;;;4.32;;
65552;SDS011;52465;51.560;14.368;2023-03-23T09:52:17;4.43;;;4.22;;
65552;SDS011;52465;51.560;14.368;2023-03-23T09:54:47;4.30;;;4.10;;
65552;SDS011;52465;51.560;14.368;2023-03-23T09:57:21;4.45;;;4.25;;
65552;SDS011;52465;51.560;14.368;2023-03-23T09:59:50;4.68;;;4.35;;
65552;SDS011;52465;51.560;14.368;2023-03-23T10:05:38;4.95;;;4.65;;
65552;SDS011;52465;51.560;14.368;2023-03-23T10:08:13;4.18;;;3.97;;
65552;SDS011;52465;51.560;14.368;2023-03-23T10:10:45;4.65;;;4.25;;
65552;SDS011;52465;51.560;14.368;2023-03-23T10:15:59;4.50;;;4.30;;
65552;SDS011;52465;51.560;14.368;2023-03-23T10:21:20;4.28;;;4.07;;
65552;SDS011;52465;51.560;14.368;2023-03-23T10:23:52;4.20;;;4.00;;
65552;SDS011;52465;51.560;14.368;2023-03-23T10:28:51;4.70;;;4.40;;
65552;SDS011;52465;51.560;14.368;2023-03-23T10:31:24;4.20;;;4.00;;
65552;SDS011;52465;51.560;14.368;2023-03-23T10:33:55;4.10;;;3.90;;
65552;SDS011;52465;51.560;14.368;2023-03-23T10:36:24;4.50;;;4.20;;
65552;SDS011;52465;51.560;14.368;2023-03-23T10:39:05;4.40;;;4.20;;
65552;SDS011;52465;51.560;14.368;2023-03-23T10:41:36;4.50;;;4.20;;
65552;SDS011;52465;51.560;14.368;2023-03-23T10:44:07;4.50;;;4.30;;
65552;SDS011;52465;51.560;14.368;2023-03-23T10:46:42;4.63;;;4.35;;
65552;SDS011;52465;51.560;14.368;2023-03-23T10:49:27;4.22;;;4.03;;
65552;SDS011;52465;51.560;14.368;2023-03-23T10:54:38;4.40;;;4.10;;
65552;SDS011;52465;51.560;14.368;2023-03-23T10:57:12;4.38;;;4.18;;
65552;SDS011;52465;51.560;14.368;2023-03-23T10:59:50;4.40;;;4.20;;
65552;SDS011;52465;51.560;14.368;2023-03-23T11:02:19;4.50;;;4.30;;
65552;SDS011;52465;51.560;14.368;2023-03-23T11:04:54;4.70;;;4.30;;
65552;SDS011;52465;51.560;14.368;2023-03-23T11:07:25;4.47;;;4.18;;
65552;SDS011;52465;51.560;14.368;2023-03-23T11:09:54;4.30;;;4.10;;
65552;SDS011;52465;51.560;14.368;2023-03-23T11:12:21;4.40;;;4.20;;
65552;SDS011;52465;51.560;14.368;2023-03-23T11:14:48;4.40;;;4.20;;
65552;SDS011;52465;51.560;14.368;2023-03-23T11:17:25;4.55;;;4.30;;
65552;SDS011;52465;51.560;14.368;2023-03-23T11:19:52;4.70;;;4.40;;
65552;SDS011;52465;51.560;14.368;2023-03-23T11:22:28;4.35;;;4.15;;
65552;SDS011;52465;51.560;14.368;2023-03-23T11:25:03;4.50;;;4.30;;
65552;SDS011;52465;51.560;14.368;2023-03-23T11:27:30;4.65;;;4.35;;
65552;SDS011;52465;51.560;14.368;2023-03-23T11:30:07;4.32;;;4.13;;
65552;SDS011;52465;51.560;14.368;2023-03-23T11:32:35;4.40;;;4.20;;
65552;SDS011;52465;51.560;14.368;2023-03-23T11:35:03;4.40;;;4.20;;
65552;SDS011;52465;51.560;14.368;2023-03-23T11:37:34;4.32;;;4.13;;
65552;SDS011;52465;51.560;14.368;2023-03-23T11:45:24;5.00;;;4.70;;
65552;SDS011;52465;51.560;14.368;2023-03-23T11:50:55;4.30;;;4.10;;
65552;SDS011;52465;51.560;14.368;2023-03-23T11:53:35;4.40;;;4.20;;
65552;SDS011;52465;51.560;14.368;2023-03-23T11:56:11;4.47;;;4.28;;
65552;SDS011;52465;51.560;14.368;2023-03-23T11:58:41;4.32;;;4.03;;
65552;SDS011;52465;51.560;14.368;2023-03-23T12:01:20;4.63;;;4.32;;
65552;SDS011;52465;51.560;14.368;2023-03-23T12:04:00;4.57;;;4.28;;
65552;SDS011;52465;51.560;14.368;2023-03-23T12:06:57;4.40;;;4.20;;
65552;SDS011;52465;51.560;14.368;2023-03-23T12:09:43;4.40;;;4.20;;
65552;SDS011;52465;51.560;14.368;2023-03-23T12:21:18;4.60;;;4.30;;
65552;SDS011;52465;51.560;14.368;2023-03-23T12:23:58;4.70;;;4.50;;
65552;SDS011;52465;51.560;14.368;2023-03-23T12:27:00;4.68;;;4.38;;
65552;SDS011;52465;51.560;14.368;2023-03-23T12:29:57;4.80;;;4.60;;
65552;SDS011;52465;51.560;14.368;2023-03-23T12:35:14;4.53;;;4.32;;
65552;SDS011;52465;51.560;14.368;2023-03-23T12:43:13;4.63;;;4.32;;
65552;SDS011;52465;51.560;14.368;2023-03-23T12:51:11;4.63;;;4.35;;
65552;SDS011;52465;51.560;14.368;2023-03-23T12:53:49;4.37;;;4.10;;
65552;SDS011;52465;51.560;14.368;2023-03-23T12:59:05;4.40;;;4.20;;
65552;SDS011;52465;51.560;14.368;2023-03-23T13:02:11;4.63;;;4.43;;
65552;SDS011;52465;51.560;14.368;2023-03-23T13:04:45;4.50;;;4.30;;
65552;SDS011;52465;51.560;14.368;2023-03-23T13:07:19;4.53;;;4.30;;
65552;SDS011;52465;51.560;14.368;2023-03-23T13:10:02;4.68;;;4.38;;
65552;SDS011;52465;51.560;14.368;2023-03-23T13:12:31;4.30;;;4.10;;
65552;SDS011;52465;51.560;14.368;2023-03-23T13:15:15;4.55;;;4.35;;
65552;SDS011;52465;51.560;14.368;2023-03-23T13:20:50;4.60;;;4.40;;
65552;SDS011;52465;51.560;14.368;2023-03-23T13:23:24;4.43;;;4.20;;
65552;SDS011;52465;51.560;14.368;2023-03-23T13:25:56;4.60;;;4.38;;
65552;SDS011;52465;51.560;14.368;2023-03-23T13:31:22;4.50;;;4.30;;
65552;SDS011;52465;51.560;14.368;2023-03-23T13:34:00;4.72;;;4.43;;
65552;SDS011;52465;51.560;14.368;2023-03-23T13:36:33;4.30;;;4.10;;
65552;SDS011;52465;51.560;14.368;2023-03-23T13:39:03;4.65;;;4.45;;
65552;SDS011;52465;51.560;14.368;2023-03-23T13:41:47;4.50;;;4.30;;
65552;SDS011;52465;51.560;14.368;2023-03-23T13:44:38;4.40;;;4.20;;
65552;SDS011;52465;51.560;14.368;2023-03-23T13:47:27;4.47;;;4.28;;
65552;SDS011;52465;51.560;14.368;2023-03-23T13:50:09;4.43;;;4.22;;
65552;SDS011;52465;51.560;14.368;2023-03-23T13:52:53;4.78;;;4.50;;
65552;SDS011;52465;51.560;14.368;2023-03-23T14:03:05;4.80;;;4.60;;
65552;SDS011;52465;51.560;14.368;2023-03-23T14:06:03;4.60;;;4.40;;
65552;SDS011;52465;51.560;14.368;2023-03-23T14:11:01;4.60;;;4.30;;
65552;SDS011;52465;51.560;14.368;2023-03-23T14:14:03;4.72;;;4.43;;
65552;SDS011;52465;51.560;14.368;2023-03-23T14:16:39;4.85;;;4.50;;
65552;SDS011;52465;51.560;14.368;2023-03-23T14:21:52;4.25;;;4.05;;
65552;SDS011;52465;51.560;14.368;2023-03-23T14:24:28;4.32;;;4.03;;
65552;SDS011;52465;51.560;14.368;2023-03-23T14:27:08;4.53;;;4.30;;
65552;SDS011;52465;51.560;14.368;2023-03-23T14:29:36;4.60;;;4.40;;
65552;SDS011;52465;51.560;14.368;2023-03-23T14:32:01;4.10;;;3.90;;
65552;SDS011;52465;51.560;14.368;2023-03-23T14:34:29;4.68;;;4.40;;
65552;SDS011;52465;51.560;14.368;2023-03-23T14:36:56;4.50;;;4.20;;
65552;SDS011;52465;51.560;14.368;2023-03-23T14:39:24;4.60;;;4.40;;
65552;SDS011;52465;51.560;14.368;2023-03-23T14:41:55;4.40;;;4.20;;
65552;SDS011;52465;51.560;14.368;2023-03-23T14:44:23;4.20;;;4.00;;
65552;SDS011;52465;51.560;14.368;2023-03-23T14:46:55;4.80;;;4.50;;
65552;SDS011;52465;51.560;14.368;2023-03-23T14:49:28;5.03;;;4.63;;
65552;SDS011;52465;51.560;14.368;2023-03-23T14:51:57;4.60;;;4.30;;
65552;SDS011;52465;51.560;14.368;2023-03-23T14:54:29;4.82;;;4.53;;
65552;SDS011;52465;51.560;14.368;2023-03-23T14:57:02;4.82;;;4.50;;
65552;SDS011;52465;51.560;14.368;2023-03-23T14:59:56;5.10;;;4.80;;
65552;SDS011;52465;51.560;14.368;2023-03-23T15:02:35;4.65;;;4.35;;
65552;SDS011;52465;51.560;14.368;2023-03-23T15:05:04;4.88;;;4.57;;
65552;SDS011;52465;51.560;14.368;2023-03-23T15:07:36;4.72;;;4.32;;
65552;SDS011;52465;51.560;14.368;2023-03-23T15:10:06;4.60;;;4.40;;
65552;SDS011;52465;51.560;14.368;2023-03-23T15:12:33;4.85;;;4.55;;
65552;SDS011;52465;51.560;14.368;2023-03-23T15:15:04;4.57;;;4.38;;
65552;SDS011;52465;51.560;14.368;2023-03-23T15:17:35;4.55;;;4.35;;
65552;SDS011;52465;51.560;14.368;2023-03-23T15:20:10;4.80;;;4.60;;
65552;SDS011;52465;51.560;14.368;2023-03-23T15:22:46;4.60;;;4.40;;
65552;SDS011;52465;51.560;14.368;2023-03-23T15:25:18;4.88;;;4.57;;
65552;SDS011;52465;51.560;14.368;2023-03-23T15:27:49;4.40;;;4.20;;
65552;SDS011;52465;51.560;14.368;2023-03-23T15:32:49;4.60;;;4.35;;
65552;SDS011;52465;51.560;14.368;2023-03-23T15:35:20;4.25;;;4.00;;
65552;SDS011;52465;51.560;14.368;2023-03-23T15:37:48;4.65;;;4.35;;
65552;SDS011;52465;51.560;14.368;2023-03-23T15:40:17;4.90;;;4.60;;
65552;SDS011;52465;51.560;14.368;2023-03-23T15:42:45;4.60;;;4.40;;
65552;SDS011;52465;51.560;14.368;2023-03-23T15:47:38;4.50;;;4.30;;
65552;SDS011;52465;51.560;14.368;2023-03-23T15:52:50;4.70;;;4.40;;
65552;SDS011;52465;51.560;14.368;2023-03-23T15:55:26;4.88;;;4.57;;
65552;SDS011;52465;51.560;14.368;2023-03-23T15:57:53;4.68;;;4.47;;
65552;SDS011;52465;51.560;14.368;2023-03-23T16:00:21;4.60;;;4.30;;
65552;SDS011;52465;51.560;14.368;2023-03-23T16:02:52;4.75;;;4.45;;
65552;SDS011;52465;51.560;14.368;2023-03-23T16:07:45;5.15;;;4.80;;
65552;SDS011;52465;51.560;14.368;2023-03-23T16:10:15;4.72;;;4.43;;
65552;SDS011;52465;51.560;14.368;2023-03-23T16:12:42;5.07;;;4.68;;
65552;SDS011;52465;51.560;14.368;2023-03-23T16:15:08;4.93;;;4.63;;
65552;SDS011;52465;51.560;14.368;2023-03-23T16:17:33;4.88;;;4.57;;
65552;SDS011;52465;51.560;14.368;2023-03-23T16:19:59;4.40;;;4.20;;
65552;SDS011;52465;51.560;14.368;2023-03-23T16:22:24;4.85;;;4.55;;
65552;SDS011;52465;51.560;14.368;2023-03-23T16:24:50;6.80;;;5.60;;
65552;SDS011;52465;51.560;14.368;2023-03-23T16:27:15;5.50;;;5.00;;